sensor_id;sensor_type;location;lat;lon;timestamp;temperature;humidity
55026;DHT22;40925;45.666;18.994;2023-09-18T00:00:55;461.70;2380.80
55026;DHT22;40925;45.666;18.994;2023-09-18T00:06:46;461.70;2380.80
55026;DHT22;40925;45.666;18.994;2023-09-18T00:09:12;461.60;2380.80
55026;DHT22;40925;45.666;18.994;2023-09-18T00:11:40;461.60;2380.80
55026;DHT22;40925;45.666;18.994;2023-09-18T00:14:07;461.50;2380.80
55026;DHT22;40925;45.666;18.994;2023-09-18T00:16:35;461.50;2380.80
55026;DHT22;40925;45.666;18.994;2023-09-18T00:19:01;461.60;2380.80
55026;DHT22;40925;45.666;18.994;2023-09-18T00:21:28;461.60;2380.80
55026;DHT22;40925;45.666;18.994;2023-09-18T00:23:56;461.70;2380.80
55026;DHT22;40925;45.666;18.994;2023-09-18T00:26:24;461.50;2380.80
55026;DHT22;40925;45.666;18.994;2023-09-18T00:28:50;461.50;2380.80
55026;DHT22;40925;45.666;18.994;2023-09-18T00:31:16;461.50;2380.80
55026;DHT22;40925;45.666;18.994;2023-09-18T00:33:42;461.50;2380.80
55026;DHT22;40925;45.666;18.994;2023-09-18T00:36:08;461.50;2380.80
55026;DHT22;40925;45.666;18.994;2023-09-18T00:38:35;461.50;2380.80
55026;DHT22;40925;45.666;18.994;2023-09-18T00:41:01;461.70;2380.80
55026;DHT22;40925;45.666;18.994;2023-09-18T00:43:28;461.70;2380.80
55026;DHT22;40925;45.666;18.994;2023-09-18T00:45:57;461.60;2380.80
55026;DHT22;40925;45.666;18.994;2023-09-18T00:51:46;486.40;2380.80
55026;DHT22;40925;45.666;18.994;2023-09-18T00:54:16;486.40;2380.80
55026;DHT22;40925;45.666;18.994;2023-09-18T00:56:45;486.40;2380.80
55026;DHT22;40925;45.666;18.994;2023-09-18T00:59:12;486.40;2380.80
55026;DHT22;40925;45.666;18.994;2023-09-18T01:01:40;486.40;2380.80
55026;DHT22;40925;45.666;18.994;2023-09-18T01:04:10;486.40;2380.80
55026;DHT22;40925;45.666;18.994;2023-09-18T01:06:38;486.40;2380.80
55026;DHT22;40925;45.666;18.994;2023-09-18T01:09:05;461.70;2380.80
55026;DHT22;40925;45.666;18.994;2023-09-18T01:14:55;461.70;2380.80
55026;DHT22;40925;45.666;18.994;2023-09-18T01:17:24;461.70;2380.80
55026;DHT22;40925;45.666;18.994;2023-09-18T01:19:50;461.60;2380.80
55026;DHT22;40925;45.666;18.994;2023-09-18T01:22:17;461.60;2380.80
55026;DHT22;40925;45.666;18.994;2023-09-18T01:24:45;461.60;2380.80
55026;DHT22;40925;45.666;18.994;2023-09-18T01:27:14;461.60;2380.80
55026;DHT22;40925;45.666;18.994;2023-09-18T01:29:43;461.50;2380.80
55026;DHT22;40925;45.666;18.994;2023-09-18T01:32:09;461.50;2380.80
55026;DHT22;40925;45.666;18.994;2023-09-18T01:34:38;461.50;2380.80
55026;DHT22;40925;45.666;18.994;2023-09-18T01:37:10;461.50;2380.80
55026;DHT22;40925;45.666;18.994;2023-09-18T01:39:38;461.60;2380.80
55026;DHT22;40925;45.666;18.994;2023-09-18T01:42:06;461.50;2380.80
55026;DHT22;40925;45.666;18.994;2023-09-18T01:44:33;461.50;2380.80
55026;DHT22;40925;45.666;18.994;2023-09-18T01:47:01;461.40;2380.80
55026;DHT22;40925;45.666;18.994;2023-09-18T01:49:36;461.40;2380.80
55026;DHT22;40925;45.666;18.994;2023-09-18T01:52:03;461.50;2380.80
55026;DHT22;40925;45.666;18.994;2023-09-18T01:54:31;461.50;2380.80
55026;DHT22;40925;45.666;18.994;2023-09-18T01:56:57;461.50;2380.80
55026;DHT22;40925;45.666;18.994;2023-09-18T01:59:23;461.50;2380.80
55026;DHT22;40925;45.666;18.994;2023-09-18T02:01:50;461.50;2380.80
55026;DHT22;40925;45.666;18.994;2023-09-18T02:04:17;461.40;2380.80
55026;DHT22;40925;45.666;18.994;2023-09-18T02:06:44;461.40;2380.80
55026;DHT22;40925;45.666;18.994;2023-09-18T02:09:10;461.40;2380.80
55026;DHT22;40925;45.666;18.994;2023-09-18T02:11:38;461.50;2380.80
55026;DHT22;40925;45.666;18.994;2023-09-18T02:14:06;461.40;2380.80
55026;DHT22;40925;45.666;18.994;2023-09-18T02:23:16;461.30;2380.80
55026;DHT22;40925;45.666;18.994;2023-09-18T02:25:42;461.30;2380.80
55026;DHT22;40925;45.666;18.994;2023-09-18T02:28:08;461.20;2380.80
55026;DHT22;40925;45.666;18.994;2023-09-18T02:30:34;461.20;2380.80
55026;DHT22;40925;45.666;18.994;2023-09-18T02:33:01;461.10;2380.80
55026;DHT22;40925;45.666;18.994;2023-09-18T02:35:29;461.10;2380.80
55026;DHT22;40925;45.666;18.994;2023-09-18T02:37:56;461.00;2380.80
55026;DHT22;40925;45.666;18.994;2023-09-18T02:40:22;460.90;2380.80
55026;DHT22;40925;45.666;18.994;2023-09-18T02:42:48;460.90;2380.80
55026;DHT22;40925;45.666;18.994;2023-09-18T02:45:14;460.90;2380.80
55026;DHT22;40925;45.666;18.994;2023-09-18T02:47:40;460.80;2380.80
55026;DHT22;40925;45.666;18.994;2023-09-18T02:50:08;460.80;2380.80
55026;DHT22;40925;45.666;18.994;2023-09-18T02:52:36;436.10;2355.20
55026;DHT22;40925;45.666;18.994;2023-09-18T02:55:03;436.10;2355.20
55026;DHT22;40925;45.666;18.994;2023-09-18T02:57:29;436.00;2355.20
55026;DHT22;40925;45.666;18.994;2023-09-18T02:59:55;436.00;2355.20
55026;DHT22;40925;45.666;18.994;2023-09-18T03:02:21;436.00;2355.20
55026;DHT22;40925;45.666;18.994;2023-09-18T03:04:47;435.90;2048.00
55026;DHT22;40925;45.666;18.994;2023-09-18T03:07:13;435.90;1996.80
55026;DHT22;40925;45.666;18.994;2023-09-18T03:09:39;435.90;2252.80
55026;DHT22;40925;45.666;18.994;2023-09-18T03:12:06;435.90;2048.00
55026;DHT22;40925;45.666;18.994;2023-09-18T03:14:32;435.90;2355.20
55026;DHT22;40925;45.666;18.994;2023-09-18T03:16:58;435.90;2355.20
55026;DHT22;40925;45.666;18.994;2023-09-18T03:19:24;435.80;2355.20
55026;DHT22;40925;45.666;18.994;2023-09-18T03:21:51;435.80;2355.20
55026;DHT22;40925;45.666;18.994;2023-09-18T03:24:17;435.80;2355.20
55026;DHT22;40925;45.666;18.994;2023-09-18T03:26:43;436.00;2099.20
55026;DHT22;40925;45.666;18.994;2023-09-18T03:29:09;435.90;2355.20
55026;DHT22;40925;45.666;18.994;2023-09-18T03:31:35;435.70;2355.20
55026;DHT22;40925;45.666;18.994;2023-09-18T03:37:23;435.80;2355.20
55026;DHT22;40925;45.666;18.994;2023-09-18T03:39:49;435.60;2355.20
55026;DHT22;40925;45.666;18.994;2023-09-18T03:42:15;435.50;2355.20
55026;DHT22;40925;45.666;18.994;2023-09-18T03:44:41;435.60;2355.20
55026;DHT22;40925;45.666;18.994;2023-09-18T03:47:07;435.60;2355.20
55026;DHT22;40925;45.666;18.994;2023-09-18T03:49:33;435.50;2355.20
55026;DHT22;40925;45.666;18.994;2023-09-18T03:54:25;435.90;2355.20
55026;DHT22;40925;45.666;18.994;2023-09-18T03:56:51;435.60;2355.20
55026;DHT22;40925;45.666;18.994;2023-09-18T03:59:17;435.70;2355.20
55026;DHT22;40925;45.666;18.994;2023-09-18T04:01:43;435.70;2355.20
55026;DHT22;40925;45.666;18.994;2023-09-18T04:07:34;435.60;2355.20
55026;DHT22;40925;45.666;18.994;2023-09-18T04:10:00;435.60;2355.20
55026;DHT22;40925;45.666;18.994;2023-09-18T04:12:26;435.50;2355.20
55026;DHT22;40925;45.666;18.994;2023-09-18T04:14:52;435.30;2355.20
55026;DHT22;40925;45.666;18.994;2023-09-18T04:17:21;435.40;2355.20
55026;DHT22;40925;45.666;18.994;2023-09-18T04:19:47;435.40;2355.20
55026;DHT22;40925;45.666;18.994;2023-09-18T04:22:14;435.30;2355.20
55026;DHT22;40925;45.666;18.994;2023-09-18T04:24:40;435.30;2355.20
55026;DHT22;40925;45.666;18.994;2023-09-18T04:27:06;435.30;2355.20
55026;DHT22;40925;45.666;18.994;2023-09-18T04:29:32;435.20;2355.20
55026;DHT22;40925;45.666;18.994;2023-09-18T04:31:58;435.20;2355.20
55026;DHT22;40925;45.666;18.994;2023-09-18T04:38:07;435.40;2355.20
55026;DHT22;40925;45.666;18.994;2023-09-18T04:40:37;435.50;2355.20
55026;DHT22;40925;45.666;18.994;2023-09-18T04:43:03;435.60;2355.20
55026;DHT22;40925;45.666;18.994;2023-09-18T04:45:31;435.60;2355.20
55026;DHT22;40925;45.666;18.994;2023-09-18T04:47:58;435.70;2355.20
55026;DHT22;40925;45.666;18.994;2023-09-18T04:50:24;435.70;2355.20
55026;DHT22;40925;45.666;18.994;2023-09-18T04:52:52;435.70;2355.20
55026;DHT22;40925;45.666;18.994;2023-09-18T04:55:20;435.80;2355.20
55026;DHT22;40925;45.666;18.994;2023-09-18T04:57:46;435.80;2355.20
55026;DHT22;40925;45.666;18.994;2023-09-18T05:00:13;435.80;2355.20
55026;DHT22;40925;45.666;18.994;2023-09-18T05:02:40;435.90;2278.40
55026;DHT22;40925;45.666;18.994;2023-09-18T05:05:07;435.90;2355.20
55026;DHT22;40925;45.666;18.994;2023-09-18T05:07:36;435.90;2355.20
55026;DHT22;40925;45.666;18.994;2023-09-18T05:10:04;436.00;2355.20
55026;DHT22;40925;45.666;18.994;2023-09-18T05:12:30;436.00;2355.20
55026;DHT22;40925;45.666;18.994;2023-09-18T05:14:56;436.00;2355.20
55026;DHT22;40925;45.666;18.994;2023-09-18T05:17:39;436.10;2355.20
55026;DHT22;40925;45.666;18.994;2023-09-18T05:20:11;460.80;2380.80
55026;DHT22;40925;45.666;18.994;2023-09-18T05:22:39;460.90;2380.80
55026;DHT22;40925;45.666;18.994;2023-09-18T05:25:06;461.00;2380.80
55026;DHT22;40925;45.666;18.994;2023-09-18T05:27:33;461.10;2380.80
55026;DHT22;40925;45.666;18.994;2023-09-18T05:29:59;461.10;2380.80
55026;DHT22;40925;45.666;18.994;2023-09-18T05:32:25;461.20;2124.80
55026;DHT22;40925;45.666;18.994;2023-09-18T05:34:52;461.30;2380.80
55026;DHT22;40925;45.666;18.994;2023-09-18T05:37:18;461.30;2380.80
55026;DHT22;40925;45.666;18.994;2023-09-18T05:39:44;461.40;2380.80
55026;DHT22;40925;45.666;18.994;2023-09-18T05:42:10;461.60;2380.80
55026;DHT22;40925;45.666;18.994;2023-09-18T05:44:36;461.70;2380.80
55026;DHT22;40925;45.666;18.994;2023-09-18T05:47:04;461.70;2380.80
55026;DHT22;40925;45.666;18.994;2023-09-18T05:52:53;486.50;2380.80
55026;DHT22;40925;45.666;18.994;2023-09-18T05:55:19;486.40;2380.80
55026;DHT22;40925;45.666;18.994;2023-09-18T05:57:46;486.40;2380.80
55026;DHT22;40925;45.666;18.994;2023-09-18T06:00:12;461.70;2380.80
55026;DHT22;40925;45.666;18.994;2023-09-18T06:02:40;486.40;2380.80
55026;DHT22;40925;45.666;18.994;2023-09-18T06:12:30;717.10;2406.40
55026;DHT22;40925;45.666;18.994;2023-09-18T06:28:05;845.00;1638.40
55026;DHT22;40925;45.666;18.994;2023-09-18T06:35:25;819.40;1664.00
55026;DHT22;40925;45.666;18.994;2023-09-18T06:37:51;845.10;1638.40
55026;DHT22;40925;45.666;18.994;2023-09-18T06:40:20;870.60;1587.20
55026;DHT22;40925;45.666;18.994;2023-09-18T06:42:49;870.50;1561.60
55026;DHT22;40925;45.666;18.994;2023-09-18T06:45:15;845.70;1536.00
55026;DHT22;40925;45.666;18.994;2023-09-18T06:47:41;896.50;1459.20
55026;DHT22;40925;45.666;18.994;2023-09-18T06:50:11;947.90;1356.80
55026;DHT22;40925;45.666;18.994;2023-09-18T06:52:40;947.80;1356.80
55026;DHT22;40925;45.666;18.994;2023-09-18T06:55:07;973.50;1280.00
55026;DHT22;40925;45.666;18.994;2023-09-18T06:57:34;973.40;1305.60
55026;DHT22;40925;45.666;18.994;2023-09-18T07:02:27;948.10;1280.00
55026;DHT22;40925;45.666;18.994;2023-09-18T07:15:38;922.30;1331.20
55026;DHT22;40925;45.666;18.994;2023-09-18T07:18:05;870.70;1459.20
55026;DHT22;40925;45.666;18.994;2023-09-18T07:20:31;845.30;1484.80
55026;DHT22;40925;45.666;18.994;2023-09-18T07:23:00;845.20;1484.80
55026;DHT22;40925;45.666;18.994;2023-09-18T07:25:26;794.30;1612.80
55026;DHT22;40925;45.666;18.994;2023-09-18T07:27:52;743.20;1740.80
55026;DHT22;40925;45.666;18.994;2023-09-18T07:42:41;691.20;2099.20
55026;DHT22;40925;45.666;18.994;2023-09-18T07:45:09;666.10;2227.20
55026;DHT22;40925;45.666;18.994;2023-09-18T07:47:39;666.00;2278.40
55026;DHT22;40925;45.666;18.994;2023-09-18T07:53:27;666.00;2355.20
55026;DHT22;40925;45.666;18.994;2023-09-18T07:58:26;666.50;2406.40
55026;DHT22;40925;45.666;18.994;2023-09-18T08:00:56;666.30;2380.80
55026;DHT22;40925;45.666;18.994;2023-09-18T08:03:26;666.20;2406.40
55026;DHT22;40925;45.666;18.994;2023-09-18T08:05:53;665.90;2432.00
55026;DHT22;40925;45.666;18.994;2023-09-18T08:08:21;666.10;2432.00
55026;DHT22;40925;45.666;18.994;2023-09-18T08:13:16;691.40;2380.80
55026;DHT22;40925;45.666;18.994;2023-09-18T08:42:52;717.20;2201.60
55026;DHT22;40925;45.666;18.994;2023-09-18T08:45:31;717.00;2227.20
55026;DHT22;40925;45.666;18.994;2023-09-18T08:50:28;717.50;2176.00
55026;DHT22;40925;45.666;18.994;2023-09-18T08:57:55;742.40;2150.40
55026;DHT22;40925;45.666;18.994;2023-09-18T09:08:40;742.50;2073.60
55026;DHT22;40925;45.666;18.994;2023-09-18T09:11:06;742.50;2073.60
55026;DHT22;40925;45.666;18.994;2023-09-18T09:13:32;742.50;2099.20
55026;DHT22;40925;45.666;18.994;2023-09-18T09:15:59;742.50;2048.00
55026;DHT22;40925;45.666;18.994;2023-09-18T09:18:29;742.60;2048.00
55026;DHT22;40925;45.666;18.994;2023-09-18T09:20:59;742.80;2048.00
55026;DHT22;40925;45.666;18.994;2023-09-18T09:23:27;742.80;2022.40
55026;DHT22;40925;45.666;18.994;2023-09-18T09:26:12;742.90;2048.00
55026;DHT22;40925;45.666;18.994;2023-09-18T09:28:39;742.90;1996.80
55026;DHT22;40925;45.666;18.994;2023-09-18T09:31:06;743.10;1996.80
55026;DHT22;40925;45.666;18.994;2023-09-18T09:33:32;743.20;1996.80
55026;DHT22;40925;45.666;18.994;2023-09-18T09:35:58;743.00;1996.80
55026;DHT22;40925;45.666;18.994;2023-09-18T09:38:32;742.90;1996.80
55026;DHT22;40925;45.666;18.994;2023-09-18T09:41:02;768.00;1971.20
55026;DHT22;40925;45.666;18.994;2023-09-18T09:43:33;743.00;1996.80
55026;DHT22;40925;45.666;18.994;2023-09-18T09:58:37;768.00;1894.40
55026;DHT22;40925;45.666;18.994;2023-09-18T10:01:06;768.00;1920.00
55026;DHT22;40925;45.666;18.994;2023-09-18T10:03:38;768.00;1920.00
55026;DHT22;40925;45.666;18.994;2023-09-18T10:06:06;768.10;1894.40
55026;DHT22;40925;45.666;18.994;2023-09-18T10:08:33;768.20;1894.40
55026;DHT22;40925;45.666;18.994;2023-09-18T10:11:06;768.50;1894.40
55026;DHT22;40925;45.666;18.994;2023-09-18T10:16:18;768.90;1817.60
55026;DHT22;40925;45.666;18.994;2023-09-18T10:22:06;794.00;1792.00
55026;DHT22;40925;45.666;18.994;2023-09-18T10:24:37;794.20;1792.00
55026;DHT22;40925;45.666;18.994;2023-09-18T10:27:05;793.70;1792.00
55026;DHT22;40925;45.666;18.994;2023-09-18T10:29:34;768.80;1792.00
55026;DHT22;40925;45.666;18.994;2023-09-18T10:32:03;793.80;1792.00
55026;DHT22;40925;45.666;18.994;2023-09-18T10:34:36;793.70;1766.40
55026;DHT22;40925;45.666;18.994;2023-09-18T10:37:04;793.70;1740.80
55026;DHT22;40925;45.666;18.994;2023-09-18T10:39:38;794.10;1740.80
55026;DHT22;40925;45.666;18.994;2023-09-18T10:42:09;793.60;1792.00
55026;DHT22;40925;45.666;18.994;2023-09-18T10:44:36;794.10;1740.80
55026;DHT22;40925;45.666;18.994;2023-09-18T10:47:08;794.20;1715.20
55026;DHT22;40925;45.666;18.994;2023-09-18T10:49:35;793.90;1740.80
55026;DHT22;40925;45.666;18.994;2023-09-18T10:52:02;794.10;1689.60
55026;DHT22;40925;45.666;18.994;2023-09-18T12:58:05;845.10;1433.60
55026;DHT22;40925;45.666;18.994;2023-09-18T13:03:01;820.00;1433.60
55026;DHT22;40925;45.666;18.994;2023-09-18T13:05:30;820.10;1433.60
55026;DHT22;40925;45.666;18.994;2023-09-18T13:38:00;820.00;1433.60
55026;DHT22;40925;45.666;18.994;2023-09-18T14:05:06;819.70;1382.40
55026;DHT22;40925;45.666;18.994;2023-09-18T14:07:32;819.40;1408.00
55026;DHT22;40925;45.666;18.994;2023-09-18T14:17:18;819.50;1408.00
55026;DHT22;40925;45.666;18.994;2023-09-18T14:19:48;819.20;1433.60
55026;DHT22;40925;45.666;18.994;2023-09-18T14:27:08;819.30;1408.00
55026;DHT22;40925;45.666;18.994;2023-09-18T14:29:35;794.40;1433.60
55026;DHT22;40925;45.666;18.994;2023-09-18T14:32:01;794.20;1433.60
55026;DHT22;40925;45.666;18.994;2023-09-18T14:39:22;794.10;1459.20
55026;DHT22;40925;45.666;18.994;2023-09-18T14:41:48;793.90;1484.80
55026;DHT22;40925;45.666;18.994;2023-09-18T14:54:59;768.50;1510.40
55026;DHT22;40925;45.666;18.994;2023-09-18T14:57:26;768.60;1484.80
55026;DHT22;40925;45.666;18.994;2023-09-18T14:59:52;768.70;1484.80
55026;DHT22;40925;45.666;18.994;2023-09-18T15:02:21;768.60;1510.40
55026;DHT22;40925;45.666;18.994;2023-09-18T15:04:47;768.50;1510.40
55026;DHT22;40925;45.666;18.994;2023-09-18T15:07:13;768.50;1510.40
55026;DHT22;40925;45.666;18.994;2023-09-18T15:09:44;768.60;1510.40
55026;DHT22;40925;45.666;18.994;2023-09-18T15:12:10;768.50;1510.40
55026;DHT22;40925;45.666;18.994;2023-09-18T15:14:37;768.50;1510.40
55026;DHT22;40925;45.666;18.994;2023-09-18T15:17:04;768.40;1510.40
55026;DHT22;40925;45.666;18.994;2023-09-18T15:19:30;768.40;1536.00
55026;DHT22;40925;45.666;18.994;2023-09-18T15:21:56;768.30;1536.00
55026;DHT22;40925;45.666;18.994;2023-09-18T15:24:23;768.30;1536.00
55026;DHT22;40925;45.666;18.994;2023-09-18T15:26:52;768.30;1536.00
55026;DHT22;40925;45.666;18.994;2023-09-18T15:29:18;768.20;1536.00
55026;DHT22;40925;45.666;18.994;2023-09-18T15:31:44;768.30;1536.00
55026;DHT22;40925;45.666;18.994;2023-09-18T15:34:14;768.10;1536.00
55026;DHT22;40925;45.666;18.994;2023-09-18T15:40:04;768.10;1561.60
55026;DHT22;40925;45.666;18.994;2023-09-18T15:42:31;768.10;1561.60
55026;DHT22;40925;45.666;18.994;2023-09-18T15:44:57;768.20;1561.60
55026;DHT22;40925;45.666;18.994;2023-09-18T15:47:23;768.30;1561.60
55026;DHT22;40925;45.666;18.994;2023-09-18T15:49:50;768.30;1536.00
55026;DHT22;40925;45.666;18.994;2023-09-18T15:52:16;768.30;1536.00
55026;DHT22;40925;45.666;18.994;2023-09-18T15:54:42;768.30;1536.00
55026;DHT22;40925;45.666;18.994;2023-09-18T15:57:09;768.30;1536.00
55026;DHT22;40925;45.666;18.994;2023-09-18T15:59:35;768.30;1561.60
55026;DHT22;40925;45.666;18.994;2023-09-18T16:02:01;768.30;1561.60
55026;DHT22;40925;45.666;18.994;2023-09-18T16:04:28;768.20;1561.60
55026;DHT22;40925;45.666;18.994;2023-09-18T16:06:55;768.10;1561.60
55026;DHT22;40925;45.666;18.994;2023-09-18T16:09:24;768.00;1587.20
55026;DHT22;40925;45.666;18.994;2023-09-18T16:11:50;743.20;1587.20
55026;DHT22;40925;45.666;18.994;2023-09-18T16:14:16;743.00;1587.20
55026;DHT22;40925;45.666;18.994;2023-09-18T16:16:46;743.00;1612.80
55026;DHT22;40925;45.666;18.994;2023-09-18T16:19:14;742.90;1612.80
55026;DHT22;40925;45.666;18.994;2023-09-18T16:21:41;742.90;1638.40
55026;DHT22;40925;45.666;18.994;2023-09-18T16:24:08;742.90;1638.40
55026;DHT22;40925;45.666;18.994;2023-09-18T16:26:35;742.70;1664.00
55026;DHT22;40925;45.666;18.994;2023-09-18T16:29:01;742.60;1689.60
55026;DHT22;40925;45.666;18.994;2023-09-18T16:31:30;742.40;1689.60
55026;DHT22;40925;45.666;18.994;2023-09-18T16:33:56;717.60;1689.60
55026;DHT22;40925;45.666;18.994;2023-09-18T16:43:41;717.10;1792.00
55026;DHT22;40925;45.666;18.994;2023-09-18T16:46:07;716.90;1843.20
55026;DHT22;40925;45.666;18.994;2023-09-18T16:53:27;716.90;1843.20
55026;DHT22;40925;45.666;18.994;2023-09-18T16:55:53;716.80;1894.40
55026;DHT22;40925;45.666;18.994;2023-09-18T18:45:12;640.50;2432.00
55026;DHT22;40925;45.666;18.994;2023-09-18T18:47:39;640.30;2432.00
55026;DHT22;40925;45.666;18.994;2023-09-18T18:50:06;640.10;2432.00
55026;DHT22;40925;45.666;18.994;2023-09-18T19:58:19;615.20;2432.00
55026;DHT22;40925;45.666;18.994;2023-09-18T20:00:45;614.90;2432.00
55026;DHT22;40925;45.666;18.994;2023-09-18T20:11:59;615.00;2432.00
55026;DHT22;40925;45.666;18.994;2023-09-18T20:14:26;614.80;2432.00
55026;DHT22;40925;45.666;18.994;2023-09-18T20:16:52;614.80;2432.00
55026;DHT22;40925;45.666;18.994;2023-09-18T20:19:19;614.70;2432.00
55026;DHT22;40925;45.666;18.994;2023-09-18T20:21:45;614.70;2432.00
55026;DHT22;40925;45.666;18.994;2023-09-18T20:24:16;614.70;2432.00
55026;DHT22;40925;45.666;18.994;2023-09-18T20:26:42;614.70;2432.00
55026;DHT22;40925;45.666;18.994;2023-09-18T20:29:13;614.60;2432.00
55026;DHT22;40925;45.666;18.994;2023-09-18T20:31:40;614.60;2432.00
55026;DHT22;40925;45.666;18.994;2023-09-18T20:34:06;614.50;2432.00
55026;DHT22;40925;45.666;18.994;2023-09-18T20:36:33;614.60;2432.00
55026;DHT22;40925;45.666;18.994;2023-09-18T20:39:00;614.50;2432.00
55026;DHT22;40925;45.666;18.994;2023-09-18T20:41:27;614.40;2432.00
55026;DHT22;40925;45.666;18.994;2023-09-18T20:43:53;614.40;2432.00
55026;DHT22;40925;45.666;18.994;2023-09-18T20:46:19;614.40;2432.00
55026;DHT22;40925;45.666;18.994;2023-09-18T20:48:46;614.40;2432.00
55026;DHT22;40925;45.666;18.994;2023-09-18T20:51:13;614.40;2432.00
55026;DHT22;40925;45.666;18.994;2023-09-18T20:53:39;614.40;2432.00
55026;DHT22;40925;45.666;18.994;2023-09-18T20:56:07;614.50;2432.00
55026;DHT22;40925;45.666;18.994;2023-09-18T20:58:33;614.50;2432.00
55026;DHT22;40925;45.666;18.994;2023-09-18T21:01:05;614.50;2432.00
55026;DHT22;40925;45.666;18.994;2023-09-18T21:03:33;614.50;2432.00
55026;DHT22;40925;45.666;18.994;2023-09-18T21:06:00;614.50;2432.00
55026;DHT22;40925;45.666;18.994;2023-09-18T21:11:50;614.40;2432.00
55026;DHT22;40925;45.666;18.994;2023-09-18T21:14:18;614.50;2432.00
55026;DHT22;40925;45.666;18.994;2023-09-18T21:16:47;614.40;2432.00
55026;DHT22;40925;45.666;18.994;2023-09-18T21:19:17;614.50;2432.00
55026;DHT22;40925;45.666;18.994;2023-09-18T21:21:44;614.80;2432.00
55026;DHT22;40925;45.666;18.994;2023-09-18T21:24:10;614.40;2432.00
55026;DHT22;40925;45.666;18.994;2023-09-18T21:26:36;614.40;2432.00
55026;DHT22;40925;45.666;18.994;2023-09-18T21:29:03;614.40;2432.00
55026;DHT22;40925;45.666;18.994;2023-09-18T21:31:30;614.40;2432.00
55026;DHT22;40925;45.666;18.994;2023-09-18T21:34:04;589.70;2432.00
55026;DHT22;40925;45.666;18.994;2023-09-18T21:36:37;589.70;2432.00
55026;DHT22;40925;45.666;18.994;2023-09-18T21:39:03;589.70;2432.00
55026;DHT22;40925;45.666;18.994;2023-09-18T21:41:28;589.70;2432.00
55026;DHT22;40925;45.666;18.994;2023-09-18T21:43:57;589.70;2432.00
55026;DHT22;40925;45.666;18.994;2023-09-18T21:46:23;589.70;2432.00
55026;DHT22;40925;45.666;18.994;2023-09-18T21:48:49;589.60;2432.00
55026;DHT22;40925;45.666;18.994;2023-09-18T21:51:16;589.60;2432.00
55026;DHT22;40925;45.666;18.994;2023-09-18T21:53:43;589.60;2432.00
55026;DHT22;40925;45.666;18.994;2023-09-18T21:56:09;589.60;2432.00
55026;DHT22;40925;45.666;18.994;2023-09-18T21:58:35;589.70;2432.00
55026;DHT22;40925;45.666;18.994;2023-09-18T22:01:02;589.60;2432.00
55026;DHT22;40925;45.666;18.994;2023-09-18T22:03:39;589.50;2432.00
55026;DHT22;40925;45.666;18.994;2023-09-18T22:06:05;589.40;2432.00
55026;DHT22;40925;45.666;18.994;2023-09-18T22:08:35;589.50;2432.00
55026;DHT22;40925;45.666;18.994;2023-09-18T22:11:04;589.30;2432.00
55026;DHT22;40925;45.666;18.994;2023-09-18T22:13:34;589.20;2432.00
55026;DHT22;40925;45.666;18.994;2023-09-18T22:16:00;589.30;2432.00
55026;DHT22;40925;45.666;18.994;2023-09-18T22:18:25;589.20;2432.00
55026;DHT22;40925;45.666;18.994;2023-09-18T22:20:51;589.20;2432.00
55026;DHT22;40925;45.666;18.994;2023-09-18T22:23:17;589.10;2432.00
55026;DHT22;40925;45.666;18.994;2023-09-18T22:25:43;589.10;2432.00
55026;DHT22;40925;45.666;18.994;2023-09-18T22:28:13;589.10;2432.00
55026;DHT22;40925;45.666;18.994;2023-09-18T22:30:41;589.00;2432.00
55026;DHT22;40925;45.666;18.994;2023-09-18T22:33:06;589.00;2432.00
55026;DHT22;40925;45.666;18.994;2023-09-18T22:35:33;589.00;2432.00
55026;DHT22;40925;45.666;18.994;2023-09-18T22:38:25;589.00;2432.00
